Time;durP1;ratioP1;P1;durP2;ratioP2;P2;SDS_P1;SDS_P2;PMS_P1;PMS_P2;Temp;Humidity;BMP_temperature;BMP_pressure;BME280_temperature;BME280_humidity;BME280_pressure;Samples;Min_cycle;Max_cycle;Signal;HPM_P1;HPM_P2
2023/07/22 00:00:15;;;;;;;6.30;5.00;;;;;;;;;;628133;23;1085;-78
2023/07/22 00:00:30;;;;;;;5.28;4.78;;;;;;;;;;629703;23;1333;-78
2023/07/22 00:00:46;;;;;;;5.88;4.80;;;;;;;;;;628044;23;1159;-78
2023/07/22 00:01:01;;;;;;;5.73;4.67;;;;;;;;;;627701;23;1187;-78
2023/07/22 00:01:17;;;;;;;5.57;4.90;;;;;;;;;;629646;23;971;-78
2023/07/22 00:01:32;;;;;;;5.70;5.10;;;;;;;;;;631357;23;1008;-78
2023/07/22 00:01:47;;;;;;;5.17;4.67;;;;;;;;;;631257;23;784;-78
2023/07/22 00:02:03;;;;;;;4.85;4.45;;;;;;;;;;630969;23;1197;-78
2023/07/22 00:02:18;;;;;;;5.10;4.60;;;;;;;;;;631609;23;815;-78
2023/07/22 00:02:34;;;;;;;5.45;4.80;;;;;;;;;;631635;23;816;-78
2023/07/22 00:02:49;;;;;;;5.93;4.77;;;;;;;;;;631858;23;1203;-78
2023/07/22 00:03:04;;;;;;;5.90;4.80;;;;;;;;;;631070;23;1267;-78
2023/07/22 00:03:20;;;;;;;5.82;4.63;;;;;;;;;;627535;23;1404;-78
2023/07/22 00:03:35;;;;;;;4.97;4.27;;;;;;;;;;627781;23;1242;-79
2023/07/22 00:03:50;;;;;;;4.67;4.23;;;;;;;;;;628255;23;1233;-78
2023/07/22 00:04:06;;;;;;;5.28;4.30;;;;;;;;;;627341;23;1264;-79
2023/07/22 00:04:22;;;;;;;4.88;4.15;;;;;;;;;;625364;23;1346;-78
2023/07/22 00:04:37;;;;;;;4.93;4.30;;;;;;;;;;624838;23;1239;-78
2023/07/22 00:04:53;;;;;;;5.30;4.20;;;;;;;;;;624747;23;1325;-78
2023/07/22 00:05:10;;;;;;;5.10;4.20;;;;;;;;;;625762;23;1151;-78
2023/07/22 00:05:25;;;;;;;6.35;4.70;;;;;;;;;;621894;23;1283;-78
2023/07/22 00:05:40;;;;;;;6.00;4.73;;;;;;;;;;622654;23;851;-78
2023/07/22 00:06:06;;;;;;;5.10;4.60;;;;;;;;;;625689;23;1153;-78
2023/07/22 00:06:21;;;;;;;5.55;4.70;;;;;;;;;;628324;23;1949;-78
2023/07/22 00:06:36;;;;;;;5.83;4.67;;;;;;;;;;625358;23;1298;-78
2023/07/22 00:06:51;;;;;;;6.37;4.87;;;;;;;;;;625619;23;1365;-78
2023/07/22 00:07:07;;;;;;;5.90;4.90;;;;;;;;;;625716;23;1327;-78
2023/07/22 00:07:22;;;;;;;5.40;4.90;;;;;;;;;;628094;23;1416;-78
2023/07/22 00:07:37;;;;;;;5.60;4.90;;;;;;;;;;628403;23;1017;-78
2023/07/22 00:07:53;;;;;;;5.68;4.70;;;;;;;;;;628621;23;780;-79
2023/07/22 00:08:08;;;;;;;5.70;4.60;;;;;;;;;;625237;23;1211;-78
2023/07/22 00:08:23;;;;;;;5.70;4.57;;;;;;;;;;625450;23;1163;-78
2023/07/22 00:08:39;;;;;;;5.82;4.63;;;;;;;;;;625223;23;1192;-78
2023/07/22 00:08:54;;;;;;;5.67;4.77;;;;;;;;;;625360;23;1164;-80
2023/07/22 00:09:09;;;;;;;5.50;4.90;;;;;;;;;;625885;23;1642;-78
2023/07/22 00:09:25;;;;;;;5.30;4.80;;;;;;;;;;625352;23;1341;-78
2023/07/22 00:09:41;;;;;;;5.20;4.67;;;;;;;;;;623239;23;1208;-78
2023/07/22 00:09:57;;;;;;;5.82;4.80;;;;;;;;;;619109;23;1342;-78
2023/07/22 00:10:12;;;;;;;5.30;4.70;;;;;;;;;;620034;23;832;-78
2023/07/22 00:10:27;;;;;;;5.63;4.43;;;;;;;;;;622786;23;1359;-78
2023/07/22 00:10:43;;;;;;;5.75;4.35;;;;;;;;;;622355;23;1195;-78
2023/07/22 00:10:58;;;;;;;5.50;4.57;;;;;;;;;;625274;23;1362;-78
2023/07/22 00:11:14;;;;;;;5.30;4.60;;;;;;;;;;625744;23;1302;-78
2023/07/22 00:11:29;;;;;;;5.13;4.63;;;;;;;;;;622907;23;1279;-78
2023/07/22 00:11:44;;;;;;;5.10;4.60;;;;;;;;;;621848;23;1022;-78
2023/07/22 00:12:00;;;;;;;4.90;4.40;;;;;;;;;;625085;23;915;-78
2023/07/22 00:12:15;;;;;;;4.85;4.40;;;;;;;;;;622513;23;1319;-78
2023/07/22 00:12:30;;;;;;;5.40;4.90;;;;;;;;;;619774;23;1217;-78
2023/07/22 00:12:46;;;;;;;6.80;4.90;;;;;;;;;;620759;23;1304;-78
2023/07/22 00:13:01;;;;;;;7.88;4.85;;;;;;;;;;623848;23;799;-78
2023/07/22 00:13:16;;;;;;;6.97;5.00;;;;;;;;;;622972;23;1197;-78
2023/07/22 00:13:32;;;;;;;6.03;4.87;;;;;;;;;;625307;23;926;-78
2023/07/22 00:14:09;;;;;;;5.53;4.78;;;;;;;;;;624275;23;923;-78
2023/07/22 00:14:24;;;;;;;6.88;4.50;;;;;;;;;;626447;23;1430;-78
2023/07/22 00:14:41;;;;;;;5.43;4.60;;;;;;;;;;626195;23;1319;-78
2023/07/22 00:14:56;;;;;;;5.15;4.45;;;;;;;;;;624236;23;1495;-78
2023/07/22 00:15:11;;;;;;;5.50;4.37;;;;;;;;;;623931;23;1173;-78
2023/07/22 00:15:27;;;;;;;6.40;4.55;;;;;;;;;;620831;23;1390;-78
2023/07/22 00:15:42;;;;;;;5.80;4.63;;;;;;;;;;621467;23;1087;-78
2023/07/22 00:16:01;;;;;;;5.37;4.67;;;;;;;;;;625522;23;1311;-78
2023/07/22 00:16:16;;;;;;;4.75;4.30;;;;;;;;;;626233;23;949;-78
2023/07/22 00:16:33;;;;;;;4.50;4.07;;;;;;;;;;629185;23;1364;-78
2023/07/22 00:16:48;;;;;;;5.13;4.05;;;;;;;;;;624816;23;895;-78
2023/07/22 00:17:03;;;;;;;4.67;4.00;;;;;;;;;;625920;23;889;-78
2023/07/22 00:17:20;;;;;;;4.80;4.30;;;;;;;;;;625071;23;1447;-78
2023/07/22 00:17:36;;;;;;;4.80;4.30;;;;;;;;;;626224;23;1563;-78
2023/07/22 00:17:51;;;;;;;4.90;4.40;;;;;;;;;;624471;23;1272;-78
2023/07/22 00:18:07;;;;;;;4.90;4.40;;;;;;;;;;624616;23;907;-78
2023/07/22 00:18:23;;;;;;;4.93;4.28;;;;;;;;;;622455;23;1327;-79
2023/07/22 00:18:39;;;;;;;5.13;4.43;;;;;;;;;;623243;23;1173;-80
2023/07/22 00:18:54;;;;;;;5.43;4.53;;;;;;;;;;621407;23;1095;-80
2023/07/22 00:19:09;;;;;;;5.33;4.33;;;;;;;;;;626578;23;1229;-79
2023/07/22 00:19:24;;;;;;;5.80;4.50;;;;;;;;;;625230;23;863;-79
2023/07/22 00:19:40;;;;;;;5.55;4.63;;;;;;;;;;623176;23;1186;-79
2023/07/22 00:19:55;;;;;;;6.07;4.50;;;;;;;;;;625447;23;870;-79
2023/07/22 00:20:11;;;;;;;6.40;4.30;;;;;;;;;;622901;23;1290;-79
2023/07/22 00:20:26;;;;;;;4.60;4.05;;;;;;;;;;626333;23;807;-78
2023/07/22 00:20:41;;;;;;;6.93;4.00;;;;;;;;;;625627;23;779;-80
2023/07/22 00:20:57;;;;;;;7.53;4.10;;;;;;;;;;628822;23;1199;-79
2023/07/22 00:21:12;;;;;;;4.63;3.90;;;;;;;;;;625747;23;1303;-76
2023/07/22 00:21:29;;;;;;;4.17;3.77;;;;;;;;;;622040;23;1309;-78
2023/07/22 00:21:44;;;;;;;4.30;3.90;;;;;;;;;;626157;23;890;-78
2023/07/22 00:21:59;;;;;;;4.20;3.80;;;;;;;;;;625735;23;787;-78
2023/07/22 00:22:15;;;;;;;4.65;3.80;;;;;;;;;;628818;23;1159;-79
2023/07/22 00:22:31;;;;;;;5.37;4.10;;;;;;;;;;624888;23;1207;-78
2023/07/22 00:22:46;;;;;;;4.68;4.00;;;;;;;;;;626130;23;803;-78
2023/07/22 00:23:01;;;;;;;4.33;3.90;;;;;;;;;;626444;23;1274;-77
2023/07/22 00:23:17;;;;;;;5.10;3.90;;;;;;;;;;630004;23;1095;-78
2023/07/22 00:23:32;;;;;;;5.32;3.72;;;;;;;;;;628221;23;1285;-77
2023/07/22 00:23:48;;;;;;;4.67;3.80;;;;;;;;;;624958;23;1276;-77
2023/07/22 00:24:04;;;;;;;5.63;3.90;;;;;;;;;;626645;23;815;-77
2023/07/22 00:24:21;;;;;;;5.53;3.60;;;;;;;;;;626005;23;858;-77
2023/07/22 00:24:36;;;;;;;4.90;3.65;;;;;;;;;;625930;23;1567;-77
2023/07/22 00:24:52;;;;;;;5.77;4.03;;;;;;;;;;623824;23;1138;-77
2023/07/22 00:25:10;;;;;;;5.88;3.97;;;;;;;;;;624265;23;1212;-78
2023/07/22 00:25:25;;;;;;;5.70;4.10;;;;;;;;;;623675;23;1267;-78
2023/07/22 00:25:41;;;;;;;5.77;4.20;;;;;;;;;;622921;23;1294;-78
2023/07/22 00:25:56;;;;;;;5.57;3.95;;;;;;;;;;623297;23;1321;-77
2023/07/22 00:26:12;;;;;;;5.50;4.10;;;;;;;;;;622731;23;1175;-78
2023/07/22 00:26:27;;;;;;;5.83;4.40;;;;;;;;;;622744;23;1925;-78
2023/07/22 00:26:42;;;;;;;5.27;4.30;;;;;;;;;;624517;23;851;-78
2023/07/22 00:26:58;;;;;;;4.97;4.27;;;;;;;;;;625480;23;1202;-78
2023/07/22 00:27:13;;;;;;;4.65;4.05;;;;;;;;;;626355;23;859;-77
2023/07/22 00:27:28;;;;;;;4.83;4.17;;;;;;;;;;625448;23;1469;-78
2023/07/22 00:27:44;;;;;;;5.37;4.40;;;;;;;;;;622726;23;1330;-78
2023/07/22 00:27:59;;;;;;;5.57;4.18;;;;;;;;;;625412;23;1170;-78
2023/07/22 00:28:15;;;;;;;4.97;4.10;;;;;;;;;;625373;23;1395;-78
2023/07/22 00:28:30;;;;;;;4.65;4.10;;;;;;;;;;627191;23;807;-78
2023/07/22 00:28:45;;;;;;;4.40;3.93;;;;;;;;;;622646;23;1168;-78
2023/07/22 00:29:01;;;;;;;4.63;3.90;;;;;;;;;;625774;23;1165;-78
2023/07/22 00:29:16;;;;;;;5.00;4.15;;;;;;;;;;623344;23;1224;-77
2023/07/22 00:29:31;;;;;;;4.80;4.30;;;;;;;;;;625953;23;1269;-78
2023/07/22 00:29:47;;;;;;;4.80;4.00;;;;;;;;;;625295;23;1504;-78
2023/07/22 00:30:02;;;;;;;4.80;3.90;;;;;;;;;;625083;23;1016;-78
2023/07/22 00:30:18;;;;;;;5.70;4.10;;;;;;;;;;626308;23;1049;-78
2023/07/22 00:30:34;;;;;;;6.03;4.20;;;;;;;;;;624506;23;1368;-77
2023/07/22 00:30:50;;;;;;;4.63;4.10;;;;;;;;;;621642;23;1547;-77
2023/07/22 00:31:06;;;;;;;4.88;4.13;;;;;;;;;;625520;23;1345;-78
2023/07/22 00:31:21;;;;;;;5.60;4.20;;;;;;;;;;624708;23;1221;-77
2023/07/22 00:31:37;;;;;;;5.70;4.10;;;;;;;;;;624284;23;768;-77
2023/07/22 00:31:52;;;;;;;7.13;4.22;;;;;;;;;;627318;23;780;-78
2023/07/22 00:32:08;;;;;;;7.33;4.43;;;;;;;;;;626110;23;1287;-78
2023/07/22 00:32:23;;;;;;;5.82;4.40;;;;;;;;;;622676;23;1259;-79
2023/07/22 00:32:40;;;;;;;4.70;4.20;;;;;;;;;;623280;23;1255;-78
2023/07/22 00:32:55;;;;;;;5.30;4.30;;;;;;;;;;623831;23;1410;-78
2023/07/22 00:33:11;;;;;;;4.93;4.10;;;;;;;;;;622878;23;1141;-77
2023/07/22 00:33:27;;;;;;;5.30;4.10;;;;;;;;;;622137;23;1309;-78
2023/07/22 00:33:42;;;;;;;5.88;4.03;;;;;;;;;;624902;23;1247;-78
2023/07/22 00:33:57;;;;;;;5.27;4.13;;;;;;;;;;621641;23;1244;-77
2023/07/22 00:34:13;;;;;;;5.77;4.47;;;;;;;;;;623275;23;1313;-78
2023/07/22 00:34:29;;;;;;;5.43;4.20;;;;;;;;;;627830;23;1611;-78
2023/07/22 00:34:44;;;;;;;4.97;4.10;;;;;;;;;;628238;23;1324;-78
2023/07/22 00:34:59;;;;;;;5.33;4.30;;;;;;;;;;628773;23;1311;-78
2023/07/22 00:35:15;;;;;;;5.05;4.20;;;;;;;;;;628204;23;1365;-78
2023/07/22 00:35:31;;;;;;;4.67;3.97;;;;;;;;;;631578;23;1302;-78
2023/07/22 00:35:50;;;;;;;4.60;4.05;;;;;;;;;;630074;23;1001;-78
2023/07/22 00:36:05;;;;;;;4.60;4.10;;;;;;;;;;631223;23;838;-77
2023/07/22 00:36:21;;;;;;;4.73;4.17;;;;;;;;;;631262;23;784;-78
2023/07/22 00:36:37;;;;;;;4.47;4.07;;;;;;;;;;628567;23;1327;-77
2023/07/22 00:36:53;;;;;;;4.40;4.00;;;;;;;;;;629592;23;930;-77
2023/07/22 00:37:08;;;;;;;4.55;4.10;;;;;;;;;;629317;23;1200;-78
2023/07/22 00:37:23;;;;;;;5.30;4.30;;;;;;;;;;629913;23;941;-77
2023/07/22 00:37:39;;;;;;;5.40;4.30;;;;;;;;;;630665;23;830;-78
2023/07/22 00:37:54;;;;;;;4.55;4.10;;;;;;;;;;628384;23;1667;-77
2023/07/22 00:38:09;;;;;;;4.83;4.00;;;;;;;;;;628156;23;1589;-77
2023/07/22 00:38:25;;;;;;;5.43;4.20;;;;;;;;;;629587;23;769;-77
2023/07/22 00:38:40;;;;;;;4.90;4.15;;;;;;;;;;631328;23;1402;-78
2023/07/22 00:38:56;;;;;;;4.53;3.80;;;;;;;;;;630419;23;767;-78
2023/07/22 00:39:51;;;;;;;5.05;3.90;;;;;;;;;;635085;23;845;-78
2023/07/22 00:40:11;;;;;;;5.38;4.13;;;;;;;;;;631445;23;1289;-77
2023/07/22 00:40:27;;;;;;;4.80;4.10;;;;;;;;;;631249;23;882;-75
2023/07/22 00:40:51;;;;;;;4.90;4.20;;;;;;;;;;635606;23;847;-77
2023/07/22 00:41:07;;;;;;;5.20;4.10;;;;;;;;;;632038;23;1274;-78
2023/07/22 00:41:22;;;;;;;5.00;4.07;;;;;;;;;;632616;23;1292;-77
2023/07/22 00:41:38;;;;;;;4.90;4.37;;;;;;;;;;628086;23;1237;-78
2023/07/22 00:41:53;;;;;;;4.72;4.22;;;;;;;;;;625301;23;1263;-78
2023/07/22 00:42:08;;;;;;;4.87;4.23;;;;;;;;;;629849;23;1385;-77
2023/07/22 00:42:24;;;;;;;5.33;4.50;;;;;;;;;;629317;23;923;-79
2023/07/22 00:42:40;;;;;;;5.50;4.50;;;;;;;;;;624919;23;1407;-78
2023/07/22 00:42:55;;;;;;;5.82;4.50;;;;;;;;;;625726;23;1399;-78
2023/07/22 00:43:15;;;;;;;5.90;4.60;;;;;;;;;;626483;23;808;-79
2023/07/22 00:43:31;;;;;;;6.40;4.50;;;;;;;;;;629732;23;879;-78
2023/07/22 00:43:46;;;;;;;5.88;4.25;;;;;;;;;;629510;23;871;-78
2023/07/22 00:44:02;;;;;;;5.97;4.47;;;;;;;;;;628660;23;1291;-77
2023/07/22 00:44:17;;;;;;;7.53;4.70;;;;;;;;;;628790;23;772;-78
2023/07/22 00:44:32;;;;;;;6.97;4.47;;;;;;;;;;629945;23;1247;-78
2023/07/22 00:44:48;;;;;;;4.90;4.40;;;;;;;;;;627797;23;1156;-78
2023/07/22 00:45:04;;;;;;;4.97;4.45;;;;;;;;;;628955;23;1746;-78
2023/07/22 00:45:19;;;;;;;5.07;4.38;;;;;;;;;;628167;23;1197;-78
2023/07/22 00:45:34;;;;;;;4.70;4.20;;;;;;;;;;628786;23;792;-78
2023/07/22 00:45:52;;;;;;;4.80;4.30;;;;;;;;;;628825;23;823;-78
2023/07/22 00:46:07;;;;;;;4.60;4.20;;;;;;;;;;628353;23;1411;-79
2023/07/22 00:46:22;;;;;;;4.50;4.10;;;;;;;;;;630659;23;1887;-78
2023/07/22 00:46:38;;;;;;;4.90;4.20;;;;;;;;;;632029;23;1377;-78
2023/07/22 00:46:55;;;;;;;4.63;4.13;;;;;;;;;;634439;23;873;-77
2023/07/22 00:47:11;;;;;;;4.53;4.03;;;;;;;;;;632223;23;1374;-78
2023/07/22 00:47:26;;;;;;;4.63;4.13;;;;;;;;;;634140;23;997;-78
2023/07/22 00:47:42;;;;;;;4.90;4.40;;;;;;;;;;630587;23;1258;-79
2023/07/22 00:47:58;;;;;;;5.53;4.47;;;;;;;;;;627645;23;1342;-78
2023/07/22 00:48:22;;;;;;;5.70;4.30;;;;;;;;;;629006;23;847;-76
2023/07/22 00:48:38;;;;;;;5.90;4.40;;;;;;;;;;624787;23;918;-78
2023/07/22 00:48:53;;;;;;;5.85;4.40;;;;;;;;;;621923;23;1215;-79
2023/07/22 00:49:09;;;;;;;4.67;4.17;;;;;;;;;;623629;23;1330;-78
2023/07/22 00:49:26;;;;;;;6.05;4.53;;;;;;;;;;622276;23;1212;-79
2023/07/22 00:49:41;;;;;;;5.90;4.68;;;;;;;;;;624915;23;970;-78
2023/07/22 00:49:57;;;;;;;5.13;4.63;;;;;;;;;;627889;23;1042;-79
2023/07/22 00:50:12;;;;;;;5.35;4.70;;;;;;;;;;628901;23;989;-77
2023/07/22 00:50:28;;;;;;;5.73;4.70;;;;;;;;;;629642;23;899;-78
2023/07/22 00:50:43;;;;;;;5.72;4.43;;;;;;;;;;628892;23;1336;-77
2023/07/22 00:50:59;;;;;;;5.87;4.53;;;;;;;;;;627524;23;1080;-78
2023/07/22 00:51:14;;;;;;;5.90;4.80;;;;;;;;;;625992;23;1187;-78
2023/07/22 00:51:30;;;;;;;5.10;4.60;;;;;;;;;;624782;23;1384;-78
2023/07/22 00:51:46;;;;;;;5.53;4.40;;;;;;;;;;624832;23;1268;-78
2023/07/22 00:52:02;;;;;;;6.13;4.28;;;;;;;;;;621501;23;1310;-77
2023/07/22 00:52:18;;;;;;;5.72;4.30;;;;;;;;;;622880;23;820;-78
2023/07/22 00:52:37;;;;;;;7.50;4.55;;;;;;;;;;621342;23;1305;-78
2023/07/22 00:52:53;;;;;;;6.10;4.57;;;;;;;;;;621669;23;1272;-77
2023/07/22 00:53:09;;;;;;;5.60;4.47;;;;;;;;;;623265;23;1258;-78
2023/07/22 00:53:24;;;;;;;5.10;4.50;;;;;;;;;;618897;23;1310;-78
2023/07/22 00:53:40;;;;;;;7.40;4.77;;;;;;;;;;620665;23;781;-77
2023/07/22 00:53:55;;;;;;;7.45;4.78;;;;;;;;;;621822;23;1321;-78
2023/07/22 00:54:31;;;;;;;5.18;4.68;;;;;;;;;;622548;23;938;-75
2023/07/22 00:55:07;;;;;;;5.57;4.75;;;;;;;;;;626402;23;1158;-77
2023/07/22 00:55:23;;;;;;;5.35;4.80;;;;;;;;;;631375;23;1232;-78
2023/07/22 00:55:42;;;;;;;5.30;4.80;;;;;;;;;;628150;23;1313;-78
2023/07/22 00:55:57;;;;;;;5.20;4.40;;;;;;;;;;628402;23;1622;-78
2023/07/22 00:56:13;;;;;;;5.13;4.30;;;;;;;;;;626362;23;1139;-78
2023/07/22 00:56:32;;;;;;;5.13;4.43;;;;;;;;;;626389;23;768;-77
2023/07/22 00:56:48;;;;;;;5.32;4.40;;;;;;;;;;622013;23;1395;-78
2023/07/22 00:57:04;;;;;;;4.83;4.30;;;;;;;;;;623268;23;1331;-77
2023/07/22 00:57:21;;;;;;;5.28;4.43;;;;;;;;;;623863;23;1264;-78
2023/07/22 00:57:37;;;;;;;6.50;4.75;;;;;;;;;;622116;23;1259;-78
2023/07/22 00:57:54;;;;;;;6.60;4.70;;;;;;;;;;625056;23;1282;-77
2023/07/22 00:58:09;;;;;;;6.72;4.88;;;;;;;;;;626393;23;922;-77
2023/07/22 00:58:25;;;;;;;5.30;4.80;;;;;;;;;;624739;23;1421;-78
2023/07/22 00:58:40;;;;;;;4.95;4.45;;;;;;;;;;625813;23;1232;-78
2023/07/22 00:58:55;;;;;;;5.10;4.60;;;;;;;;;;628147;23;1484;-78
2023/07/22 00:59:11;;;;;;;5.80;4.53;;;;;;;;;;629300;23;1145;-78
2023/07/22 00:59:27;;;;;;;5.95;4.40;;;;;;;;;;625900;23;1238;-78
2023/07/22 00:59:43;;;;;;;5.63;4.57;;;;;;;;;;625664;23;1176;-79
2023/07/22 00:59:59;;;;;;;5.45;4.70;;;;;;;;;;628229;23;1443;-78
2023/07/22 01:00:16;;;;;;;6.45;4.70;;;;;;;;;;632276;23;1277;-78
2023/07/22 01:00:31;;;;;;;7.38;4.68;;;;;;;;;;631917;23;839;-78
2023/07/22 01:00:48;;;;;;;6.57;4.57;;;;;;;;;;630327;23;815;-78
2023/07/22 01:01:03;;;;;;;5.60;4.53;;;;;;;;;;628891;23;1487;-78
2023/07/22 01:01:19;;;;;;;6.70;4.57;;;;;;;;;;627666;23;1144;-78
2023/07/22 01:01:34;;;;;;;6.20;4.50;;;;;;;;;;628601;23;1263;-77
2023/07/22 01:01:49;;;;;;;5.73;4.50;;;;;;;;;;625118;23;1164;-78
2023/07/22 01:02:06;;;;;;;5.30;4.20;;;;;;;;;;624015;23;1411;-78
2023/07/22 01:02:22;;;;;;;6.03;4.30;;;;;;;;;;626071;23;1339;-78
2023/07/22 01:02:40;;;;;;;5.63;4.50;;;;;;;;;;625434;23;855;-77
2023/07/22 01:02:56;;;;;;;6.32;4.47;;;;;;;;;;625342;23;1307;-78
2023/07/22 01:03:52;;;;;;;6.03;4.40;;;;;;;;;;626414;23;784;-78
2023/07/22 01:04:07;;;;;;;4.95;4.00;;;;;;;;;;631304;23;1169;-77
2023/07/22 01:04:24;;;;;;;4.93;4.20;;;;;;;;;;633241;23;1195;-78
2023/07/22 01:04:59;;;;;;;4.55;4.07;;;;;;;;;;628025;23;1171;-78
2023/07/22 01:05:16;;;;;;;5.63;4.32;;;;;;;;;;629363;23;1240;-77
2023/07/22 01:05:31;;;;;;;4.72;4.22;;;;;;;;;;628504;23;854;-77
2023/07/22 01:05:49;;;;;;;5.40;4.10;;;;;;;;;;628467;23;1401;-78
2023/07/22 01:06:04;;;;;;;6.47;4.43;;;;;;;;;;629183;23;886;-78
2023/07/22 01:06:20;;;;;;;5.60;4.33;;;;;;;;;;630821;23;1942;-78
2023/07/22 01:06:36;;;;;;;5.35;4.32;;;;;;;;;;631702;23;828;-78
2023/07/22 01:06:53;;;;;;;5.78;4.43;;;;;;;;;;628033;23;1278;-77
2023/07/22 01:07:10;;;;;;;5.53;4.32;;;;;;;;;;629358;23;906;-78
2023/07/22 01:07:25;;;;;;;5.10;4.43;;;;;;;;;;630266;23;1317;-79
2023/07/22 01:07:41;;;;;;;7.00;4.60;;;;;;;;;;627853;23;1459;-77
2023/07/22 01:07:57;;;;;;;6.90;4.50;;;;;;;;;;624805;23;1255;-78
2023/07/22 01:08:12;;;;;;;4.68;4.18;;;;;;;;;;624103;23;1235;-77
2023/07/22 01:08:28;;;;;;;4.80;4.30;;;;;;;;;;625163;23;792;-78
2023/07/22 01:08:43;;;;;;;5.78;4.40;;;;;;;;;;626096;23;839;-78
2023/07/22 01:08:58;;;;;;;5.70;4.50;;;;;;;;;;625801;23;1141;-78
2023/07/22 01:09:14;;;;;;;5.47;4.43;;;;;;;;;;624890;23;1321;-78
2023/07/22 01:09:35;;;;;;;6.57;4.53;;;;;;;;;;622149;23;1290;-78
2023/07/22 01:09:56;;;;;;;5.80;4.40;;;;;;;;;;626645;23;918;-78
2023/07/22 01:10:14;;;;;;;5.40;4.50;;;;;;;;;;629185;23;1388;-78
2023/07/22 01:10:29;;;;;;;4.72;4.10;;;;;;;;;;628275;23;1420;-78
2023/07/22 01:10:45;;;;;;;4.78;4.25;;;;;;;;;;628783;23;941;-79
2023/07/22 01:11:00;;;;;;;4.93;4.43;;;;;;;;;;626208;23;887;-78
2023/07/22 01:11:36;;;;;;;5.23;4.50;;;;;;;;;;626314;23;1291;-77
2023/07/22 01:11:51;;;;;;;5.30;4.78;;;;;;;;;;627275;23;1433;-78
2023/07/22 01:12:08;;;;;;;6.30;4.80;;;;;;;;;;630643;23;1172;-78
2023/07/22 01:12:24;;;;;;;6.13;4.80;;;;;;;;;;629707;23;1280;-78
2023/07/22 01:12:40;;;;;;;5.30;4.80;;;;;;;;;;632588;23;1237;-78
2023/07/22 01:13:15;;;;;;;5.20;4.70;;;;;;;;;;631336;23;1042;-78
2023/07/22 01:13:31;;;;;;;5.75;4.85;;;;;;;;;;630760;23;1004;-78
2023/07/22 01:13:46;;;;;;;6.32;4.82;;;;;;;;;;631621;23;998;-79
2023/07/22 01:14:02;;;;;;;6.67;5.00;;;;;;;;;;631304;23;906;-77
2023/07/22 01:14:17;;;;;;;6.72;5.22;;;;;;;;;;634349;23;803;-78
2023/07/22 01:14:34;;;;;;;6.87;5.10;;;;;;;;;;631299;23;1299;-78
2023/07/22 01:14:49;;;;;;;6.32;4.95;;;;;;;;;;632655;23;1247;-77
2023/07/22 01:15:07;;;;;;;5.50;4.82;;;;;;;;;;631994;23;1302;-77
2023/07/22 01:15:24;;;;;;;5.68;4.65;;;;;;;;;;632163;23;886;-78
2023/07/22 01:15:40;;;;;;;7.47;4.88;;;;;;;;;;630907;23;875;-78
2023/07/22 01:15:56;;;;;;;7.43;5.20;;;;;;;;;;631756;23;855;-78
2023/07/22 01:16:11;;;;;;;7.17;5.13;;;;;;;;;;629498;23;1418;-78
2023/07/22 01:16:28;;;;;;;7.75;4.95;;;;;;;;;;629720;23;1187;-78
2023/07/22 01:16:43;;;;;;;6.50;4.85;;;;;;;;;;625437;23;1260;-78
2023/07/22 01:17:01;;;;;;;5.80;5.22;;;;;;;;;;625347;23;1340;-78
2023/07/22 01:17:18;;;;;;;6.43;5.10;;;;;;;;;;623334;23;1294;-77
2023/07/22 01:17:36;;;;;;;5.97;4.95;;;;;;;;;;622271;23;1385;-78
2023/07/22 01:17:52;;;;;;;5.60;4.95;;;;;;;;;;621457;23;1262;-78
2023/07/22 01:18:08;;;;;;;5.70;5.10;;;;;;;;;;618977;23;1091;-78
2023/07/22 01:18:23;;;;;;;6.20;5.20;;;;;;;;;;621418;23;1212;-81
2023/07/22 01:18:47;;;;;;;5.70;5.10;;;;;;;;;;621983;23;1260;-79
2023/07/22 01:19:04;;;;;;;6.53;5.20;;;;;;;;;;623245;23;1177;-77
2023/07/22 01:19:20;;;;;;;6.10;4.85;;;;;;;;;;623290;23;1555;-78
2023/07/22 01:19:35;;;;;;;6.32;4.65;;;;;;;;;;622546;23;1278;-78
2023/07/22 01:19:51;;;;;;;6.82;4.90;;;;;;;;;;622321;23;1235;-78
2023/07/22 01:20:09;;;;;;;6.47;5.20;;;;;;;;;;623623;23;1304;-77
2023/07/22 01:20:24;;;;;;;6.28;5.03;;;;;;;;;;624148;23;906;-78
2023/07/22 01:20:40;;;;;;;5.47;4.95;;;;;;;;;;625539;23;843;-78
2023/07/22 01:20:56;;;;;;;5.70;5.20;;;;;;;;;;625664;23;805;-78
2023/07/22 01:21:11;;;;;;;5.53;4.97;;;;;;;;;;623834;23;1196;-78
2023/07/22 01:21:29;;;;;;;5.60;4.80;;;;;;;;;;624148;23;1337;-77
2023/07/22 01:21:46;;;;;;;5.72;4.60;;;;;;;;;;627278;23;825;-77
2023/07/22 01:22:04;;;;;;;5.90;4.65;;;;;;;;;;631014;23;882;-78
2023/07/22 01:22:21;;;;;;;5.80;4.70;;;;;;;;;;629523;23;1255;-77
2023/07/22 01:22:38;;;;;;;5.30;4.50;;;;;;;;;;629232;23;1222;-78
2023/07/22 01:22:54;;;;;;;5.35;4.50;;;;;;;;;;628844;23;1743;-78
2023/07/22 01:23:09;;;;;;;6.53;4.60;;;;;;;;;;628768;23;1385;-77
2023/07/22 01:23:24;;;;;;;6.37;4.87;;;;;;;;;;630613;23;839;-78
2023/07/22 01:23:40;;;;;;;5.57;4.73;;;;;;;;;;631105;23;1104;-77
2023/07/22 01:23:57;;;;;;;5.53;4.53;;;;;;;;;;631589;23;926;-78
2023/07/22 01:24:12;;;;;;;6.28;4.85;;;;;;;;;;631298;23;1511;-78
2023/07/22 01:24:29;;;;;;;5.90;4.80;;;;;;;;;;631859;23;1163;-78
2023/07/22 01:25:05;;;;;;;6.10;4.80;;;;;;;;;;632097;23;893;-78
2023/07/22 01:25:24;;;;;;;6.78;4.80;;;;;;;;;;633392;23;1115;-78
2023/07/22 01:25:39;;;;;;;5.88;4.80;;;;;;;;;;634417;23;846;-79
2023/07/22 01:25:56;;;;;;;5.70;4.57;;;;;;;;;;630854;23;1270;-78
2023/07/22 01:26:11;;;;;;;5.85;4.70;;;;;;;;;;628427;23;1239;-77
2023/07/22 01:26:26;;;;;;;6.17;4.80;;;;;;;;;;626675;23;1924;-77
2023/07/22 01:26:42;;;;;;;6.22;4.78;;;;;;;;;;628226;23;974;-78
2023/07/22 01:26:57;;;;;;;5.77;4.87;;;;;;;;;;624870;23;1113;-78
2023/07/22 01:27:14;;;;;;;5.70;5.03;;;;;;;;;;625482;23;914;-77
2023/07/22 01:27:29;;;;;;;6.15;5.25;;;;;;;;;;625804;23;1340;-78
2023/07/22 01:27:45;;;;;;;6.13;5.10;;;;;;;;;;624857;23;1299;-78
2023/07/22 01:28:00;;;;;;;5.83;5.10;;;;;;;;;;626942;23;800;-78
2023/07/22 01:28:16;;;;;;;5.80;5.00;;;;;;;;;;629691;23;843;-78
2023/07/22 01:28:35;;;;;;;6.17;5.10;;;;;;;;;;628208;23;1112;-78
2023/07/22 01:28:50;;;;;;;6.78;5.18;;;;;;;;;;628966;23;1310;-78
2023/07/22 01:29:05;;;;;;;6.57;5.20;;;;;;;;;;625397;23;1275;-79
2023/07/22 01:29:24;;;;;;;6.15;5.30;;;;;;;;;;622114;23;1200;-78
2023/07/22 01:29:39;;;;;;;6.32;5.10;;;;;;;;;;623971;23;938;-78
2023/07/22 01:29:55;;;;;;;6.93;4.90;;;;;;;;;;624968;23;1033;-78
2023/07/22 01:30:10;;;;;;;6.10;5.00;;;;;;;;;;622509;23;1306;-78
2023/07/22 01:30:27;;;;;;;5.60;5.07;;;;;;;;;;625442;23;1313;-78
2023/07/22 01:30:45;;;;;;;6.32;5.25;;;;;;;;;;624945;23;1564;-78
2023/07/22 01:31:00;;;;;;;5.78;5.00;;;;;;;;;;628018;23;950;-78
2023/07/22 01:31:15;;;;;;;5.90;4.83;;;;;;;;;;632031;23;795;-78
2023/07/22 01:31:31;;;;;;;6.45;5.00;;;;;;;;;;632133;23;800;-78
2023/07/22 01:31:47;;;;;;;6.17;5.10;;;;;;;;;;631597;23;772;-77
2023/07/22 01:32:03;;;;;;;6.25;5.18;;;;;;;;;;629455;23;1248;-78
2023/07/22 01:32:19;;;;;;;6.43;5.27;;;;;;;;;;627446;23;1160;-78
2023/07/22 01:32:35;;;;;;;7.07;5.25;;;;;;;;;;630139;23;1250;-78
2023/07/22 01:32:50;;;;;;;7.10;5.23;;;;;;;;;;628764;23;1293;-77
2023/07/22 01:33:05;;;;;;;5.85;5.00;;;;;;;;;;629358;23;1043;-78
2023/07/22 01:33:21;;;;;;;5.40;4.90;;;;;;;;;;628568;23;1302;-78
2023/07/22 01:33:37;;;;;;;5.70;4.90;;;;;;;;;;628652;23;1105;-78
2023/07/22 01:33:53;;;;;;;6.80;4.88;;;;;;;;;;629372;23;911;-78
2023/07/22 01:34:08;;;;;;;6.03;4.80;;;;;;;;;;626005;23;1328;-79
2023/07/22 01:34:26;;;;;;;6.30;4.90;;;;;;;;;;627185;23;780;-77
2023/07/22 01:34:41;;;;;;;7.68;5.28;;;;;;;;;;626921;23;1449;-78
2023/07/22 01:34:57;;;;;;;6.32;5.32;;;;;;;;;;626113;23;1191;-78
2023/07/22 01:35:13;;;;;;;5.70;5.10;;;;;;;;;;626222;23;1271;-78
2023/07/22 01:35:28;;;;;;;6.35;5.07;;;;;;;;;;626447;23;930;-78
2023/07/22 01:35:44;;;;;;;7.53;5.23;;;;;;;;;;628295;23;982;-78
2023/07/22 01:36:00;;;;;;;7.30;5.10;;;;;;;;;;625530;23;1512;-78
2023/07/22 01:36:15;;;;;;;6.60;5.00;;;;;;;;;;629210;23;859;-78
2023/07/22 01:36:33;;;;;;;6.60;5.00;;;;;;;;;;626176;23;1354;-78
2023/07/22 01:36:49;;;;;;;5.72;4.82;;;;;;;;;;624380;23;1426;-79
2023/07/22 01:37:04;;;;;;;5.88;4.95;;;;;;;;;;627693;23;959;-78
2023/07/22 01:37:19;;;;;;;6.53;5.10;;;;;;;;;;629117;23;871;-78
2023/07/22 01:37:35;;;;;;;5.90;5.20;;;;;;;;;;625922;23;1239;-78
2023/07/22 01:37:50;;;;;;;5.77;4.90;;;;;;;;;;626763;23;769;-78
2023/07/22 01:38:07;;;;;;;5.43;4.70;;;;;;;;;;628223;23;1301;-78
2023/07/22 01:38:23;;;;;;;5.65;4.90;;;;;;;;;;629983;23;1484;-76
2023/07/22 01:38:38;;;;;;;6.20;4.90;;;;;;;;;;631078;23;1184;-78
2023/07/22 01:38:54;;;;;;;5.95;4.85;;;;;;;;;;628333;23;1125;-78
2023/07/22 01:39:11;;;;;;;5.60;4.80;;;;;;;;;;631547;23;1321;-78
2023/07/22 01:39:27;;;;;;;5.32;4.82;;;;;;;;;;628677;23;1432;-79
2023/07/22 01:39:43;;;;;;;5.32;4.82;;;;;;;;;;625711;23;1154;-78
2023/07/22 01:39:58;;;;;;;5.13;4.63;;;;;;;;;;628875;23;1256;-78
2023/07/22 01:40:14;;;;;;;5.68;4.60;;;;;;;;;;625903;23;1297;-78
2023/07/22 01:40:29;;;;;;;5.73;4.60;;;;;;;;;;625744;23;1098;-78
2023/07/22 01:40:44;;;;;;;5.43;4.50;;;;;;;;;;626176;23;1556;-78
2023/07/22 01:41:00;;;;;;;5.30;4.60;;;;;;;;;;628360;23;1278;-78
2023/07/22 01:41:15;;;;;;;4.90;4.40;;;;;;;;;;630337;23;776;-78
2023/07/22 01:41:30;;;;;;;5.73;4.37;;;;;;;;;;623100;23;1206;-78
2023/07/22 01:41:46;;;;;;;5.70;4.43;;;;;;;;;;618926;23;1391;-78
2023/07/22 01:42:02;;;;;;;5.47;4.30;;;;;;;;;;622334;23;1201;-78
2023/07/22 01:42:18;;;;;;;6.00;4.60;;;;;;;;;;621974;23;1240;-77
2023/07/22 01:42:33;;;;;;;5.55;4.80;;;;;;;;;;622085;23;1553;-77
2023/07/22 01:42:48;;;;;;;5.07;4.50;;;;;;;;;;622426;23;1311;-78